Hlavní strana
METAR-TAF:

METAR-TAF

Letiště :

Avignon, Francie

zeměpisná šířka: 43-54-26N, zeměpisná délka: 004-54-07E, výška: 38 m

Aktuální stav počasí

Zpráva byla vytvořena před 15 minutami, v 04:30 UTC
Severní vítr 12 kt
Teplota 17°C
Vlhkost vzduchu 59%
Tlak 1024 hPa
Viditelnost 10 km a více
Žádná oblačnost pod 1500 m, nevyskytují se cumulonimby.

METAR: LFMV 260430Z AUTO 35012KT CAVOK 17/09 Q1024

Čas: 06:45 (04:45 UTC)


TAF: chybějící

Stav a předpovědi počasí z více než 4 000 letišť (zprávy METAR a TAF).

Červené a žluté tečky na mapě představují dostupné meteorologické stanice.

Když kurzor umístíte na tečku, zobrazí se název stanice.

Pak kliknutím zobrazíte stav a předpověď počasí.

Chcete-li změnit mapu, kliknutím na zelené tlačítko se znaménkem +mapu přiblížíte, kliknutím na zelené tlačítko se znaménkem – mapu oddálíte a kliknutím na zelené šipky přejdete na sousední mapy.


METAR-TAF: